Time;durP1;ratioP1;P1;durP2;ratioP2;P2;SDS_P1;SDS_P2;PMS_P1;PMS_P2;Temp;Humidity;BMP_temperature;BMP_pressure;BME280_temperature;BME280_humidity;BME280_pressure;Samples;Min_cycle;Max_cycle;Signal;HPM_P1;HPM_P2
2023/06/05 00:04:06;;;;;;;4.90;3.50;;;;;;;;;;10398625;28;20373;-65
2023/06/05 00:09:07;;;;;;;10.70;3.35;;;;;;;;;;10382948;28;20362;-63
2023/06/05 00:14:08;;;;;;;3.55;2.97;;;;;;;;;;10395980;28;20042;-64
2023/06/05 00:19:09;;;;;;;4.20;3.30;;;;;;;;;;10409816;28;20025;-61
2023/06/05 00:24:11;;;;;;;6.95;3.60;;;;;;;;;;10396703;28;20275;-62
2023/06/05 00:29:12;;;;;;;5.85;3.10;;;;;;;;;;10384228;28;20037;-66
2023/06/05 00:34:13;;;;;;;5.82;3.85;;;;;;;;;;10409019;28;20389;-66
2023/06/05 00:39:14;;;;;;;9.35;3.70;;;;;;;;;;10408746;28;20038;-66
2023/06/05 00:44:15;;;;;;;9.27;3.47;;;;;;;;;;10407005;28;20496;-63
2023/06/05 00:49:18;;;;;;;5.90;3.47;;;;;;;;;;10403424;28;20080;-63
2023/06/05 00:54:20;;;;;;;4.70;3.38;;;;;;;;;;10394078;28;20495;-62
2023/06/05 00:59:22;;;;;;;5.78;3.05;;;;;;;;;;10385628;28;20034;-61
2023/06/05 01:04:23;;;;;;;2.75;2.50;;;;;;;;;;10379701;28;20023;-64
2023/06/05 01:09:25;;;;;;;9.20;3.10;;;;;;;;;;10406304;28;20035;-63
2023/06/05 01:14:30;;;;;;;3.88;2.80;;;;;;;;;;10372434;28;20037;-63
2023/06/05 01:19:32;;;;;;;7.05;2.70;;;;;;;;;;10382609;28;20542;-64
2023/06/05 01:24:35;;;;;;;2.58;2.22;;;;;;;;;;10389098;28;20026;-63
2023/06/05 01:30:14;;;;;;;2.97;2.42;;;;;;;;;;10407115;28;20026;-61
2023/06/05 01:35:16;;;;;;;5.72;2.70;;;;;;;;;;10400751;28;20065;-61
2023/06/05 01:40:21;;;;;;;6.95;2.72;;;;;;;;;;10410368;28;20084;-63
2023/06/05 01:45:22;;;;;;;2.25;1.80;;;;;;;;;;10398700;28;20543;-65
2023/06/05 01:50:24;;;;;;;3.70;2.30;;;;;;;;;;10405569;28;20052;-64
2023/06/05 01:55:26;;;;;;;3.30;1.77;;;;;;;;;;10407405;28;20029;-65
2023/06/05 02:00:27;;;;;;;2.75;1.95;;;;;;;;;;10404959;28;20100;-63
2023/06/05 02:05:29;;;;;;;3.65;2.10;;;;;;;;;;10379090;28;20083;-65
2023/06/05 02:10:29;;;;;;;2.42;1.80;;;;;;;;;;10384217;28;20038;-63
2023/06/05 02:15:32;;;;;;;3.40;2.03;;;;;;;;;;10380431;28;20041;-66
2023/06/05 02:20:32;;;;;;;3.13;1.70;;;;;;;;;;10369667;28;20076;-66
2023/06/05 02:25:35;;;;;;;5.93;1.92;;;;;;;;;;10388192;28;20479;-62
2023/06/05 02:30:37;;;;;;;6.35;1.95;;;;;;;;;;10391247;28;20041;-66
2023/06/05 02:35:39;;;;;;;2.80;1.80;;;;;;;;;;10377204;28;20037;-66
2023/06/05 02:40:40;;;;;;;1.98;1.80;;;;;;;;;;10391578;28;20041;-65
2023/06/05 02:45:40;;;;;;;1.70;1.60;;;;;;;;;;10384875;28;20033;-66
2023/06/05 02:50:41;;;;;;;2.63;1.88;;;;;;;;;;10380754;28;20056;-65
2023/06/05 02:55:42;;;;;;;5.00;1.88;;;;;;;;;;10408701;28;20021;-66
2023/06/05 03:00:44;;;;;;;1.98;1.65;;;;;;;;;;10387875;28;20022;-65
2023/06/05 03:05:44;;;;;;;2.75;1.80;;;;;;;;;;10392561;28;20033;-66
2023/06/05 03:10:45;;;;;;;2.72;1.80;;;;;;;;;;10412517;28;20037;-65
2023/06/05 03:15:46;;;;;;;4.25;1.60;;;;;;;;;;10410445;28;20028;-64
2023/06/05 03:20:50;;;;;;;3.05;1.90;;;;;;;;;;10387501;28;20041;-64
2023/06/05 03:25:51;;;;;;;3.10;1.77;;;;;;;;;;10387380;28;20033;-65
2023/06/05 03:30:51;;;;;;;1.70;1.52;;;;;;;;;;10382393;28;20026;-66
2023/06/05 03:35:52;;;;;;;4.78;1.80;;;;;;;;;;10411159;28;20029;-63
2023/06/05 03:40:55;;;;;;;2.47;1.70;;;;;;;;;;10410805;28;20045;-66
2023/06/05 03:45:56;;;;;;;2.35;1.65;;;;;;;;;;10401997;28;20053;-65
2023/06/05 03:50:57;;;;;;;2.75;1.45;;;;;;;;;;10390314;28;20033;-63
2023/06/05 03:55:59;;;;;;;4.90;2.00;;;;;;;;;;10401914;28;20300;-62
2023/06/05 04:01:00;;;;;;;2.97;1.92;;;;;;;;;;10376905;28;20033;-65
2023/06/05 04:06:03;;;;;;;1.90;1.50;;;;;;;;;;10383092;28;20451;-64
2023/06/05 04:11:11;;;;;;;1.80;1.40;;;;;;;;;;10372914;28;20041;-66
2023/06/05 04:16:12;;;;;;;2.60;1.83;;;;;;;;;;10372620;28;20029;-61
2023/06/05 04:21:12;;;;;;;2.47;1.85;;;;;;;;;;10381535;28;20517;-66
2023/06/05 04:26:17;;;;;;;3.47;1.45;;;;;;;;;;10396402;28;20025;-64
2023/06/05 04:31:17;;;;;;;2.13;1.50;;;;;;;;;;10370906;28;20492;-66
2023/06/05 04:36:18;;;;;;;2.38;1.60;;;;;;;;;;10372020;28;20032;-62
2023/06/05 04:41:21;;;;;;;1.77;1.45;;;;;;;;;;10381997;28;20053;-64
2023/06/05 04:46:22;;;;;;;1.88;1.35;;;;;;;;;;10383026;28;20065;-66
2023/06/05 04:51:23;;;;;;;9.30;1.80;;;;;;;;;;10401740;28;20029;-65
2023/06/05 04:56:25;;;;;;;5.55;1.67;;;;;;;;;;10386092;28;20381;-63
2023/06/05 05:01:29;;;;;;;4.35;1.90;;;;;;;;;;10386110;28;20034;-65
2023/06/05 05:06:31;;;;;;;3.45;1.75;;;;;;;;;;10396099;28;20028;-63
2023/06/05 05:11:31;;;;;;;2.70;1.70;;;;;;;;;;10371250;28;20037;-65
2023/06/05 05:16:32;;;;;;;6.10;1.88;;;;;;;;;;10386200;28;20400;-62
2023/06/05 05:21:33;;;;;;;10.65;1.70;;;;;;;;;;10406106;28;20273;-65
2023/06/05 05:26:33;;;;;;;8.18;1.85;;;;;;;;;;10402473;28;20017;-67
2023/06/05 05:31:34;;;;;;;4.03;1.63;;;;;;;;;;10406676;28;20040;-65
2023/06/05 05:36:36;;;;;;;5.80;1.80;;;;;;;;;;10406437;28;20059;-65
2023/06/05 05:41:36;;;;;;;4.35;1.35;;;;;;;;;;10396165;28;20057;-61
2023/06/05 05:46:37;;;;;;;2.15;1.60;;;;;;;;;;10399940;28;20516;-65
2023/06/05 05:51:38;;;;;;;2.63;1.33;;;;;;;;;;10407003;28;20358;-66
2023/06/05 05:56:38;;;;;;;2.97;1.50;;;;;;;;;;10406844;28;20033;-64
2023/06/05 06:01:39;;;;;;;1.95;1.40;;;;;;;;;;10408798;28;20373;-63
2023/06/05 06:06:39;;;;;;;1.70;1.50;;;;;;;;;;10412319;28;20444;-66
2023/06/05 06:11:42;;;;;;;3.67;1.20;;;;;;;;;;10396364;28;20029;-65
2023/06/05 06:16:43;;;;;;;8.30;1.88;;;;;;;;;;10392383;28;20494;-63
2023/06/05 06:21:43;;;;;;;6.55;1.73;;;;;;;;;;10407431;28;20032;-64
2023/06/05 06:26:44;;;;;;;6.75;1.75;;;;;;;;;;10384206;28;20037;-64
2023/06/05 06:31:45;;;;;;;12.43;2.00;;;;;;;;;;10376241;28;20053;-60
2023/06/05 06:36:46;;;;;;;6.03;1.80;;;;;;;;;;10376529;28;20390;-63
2023/06/05 06:41:46;;;;;;;3.60;1.70;;;;;;;;;;10391661;28;20068;-61
2023/06/05 06:46:50;;;;;;;5.13;1.63;;;;;;;;;;10388030;28;20378;-59
2023/06/05 06:51:50;;;;;;;4.35;2.20;;;;;;;;;;10397169;28;20052;-64
2023/06/05 06:56:51;;;;;;;5.05;2.28;;;;;;;;;;10386124;28;20055;-65
2023/06/05 07:02:13;;;;;;;11.88;2.35;;;;;;;;;;10375068;28;20021;-64
2023/06/05 07:07:16;;;;;;;5.97;2.55;;;;;;;;;;10400084;28;20533;-57
2023/06/05 07:12:20;;;;;;;2.85;2.00;;;;;;;;;;10387039;28;20040;-63
2023/06/05 07:17:21;;;;;;;4.60;2.47;;;;;;;;;;10399565;28;20030;-61
2023/06/05 07:22:21;;;;;;;2.13;1.90;;;;;;;;;;10385474;28;20040;-62
2023/06/05 07:27:22;;;;;;;3.45;2.05;;;;;;;;;;10376063;28;20030;-60
2023/06/05 07:32:23;;;;;;;5.97;2.17;;;;;;;;;;10383508;28;20493;-66
2023/06/05 07:37:23;;;;;;;3.90;2.10;;;;;;;;;;10377439;28;20022;-63
2023/06/05 07:42:24;;;;;;;5.90;1.83;;;;;;;;;;10386209;28;20049;-62
2023/06/05 07:47:25;;;;;;;4.40;1.95;;;;;;;;;;10405990;28;20026;-66
2023/06/05 07:52:27;;;;;;;3.10;1.98;;;;;;;;;;10390981;28;20087;-62
2023/06/05 07:57:28;;;;;;;2.30;1.98;;;;;;;;;;10385798;28;20469;-64
2023/06/05 08:02:29;;;;;;;4.75;1.98;;;;;;;;;;10374006;28;20022;-65
2023/06/05 08:07:29;;;;;;;2.05;1.75;;;;;;;;;;10372637;28;20022;-62
2023/06/05 08:12:33;;;;;;;3.75;1.88;;;;;;;;;;10372720;28;20047;-64
2023/06/05 08:17:33;;;;;;;2.38;1.70;;;;;;;;;;10371772;28;20461;-63
2023/06/05 08:22:34;;;;;;;4.43;1.90;;;;;;;;;;10384510;28;20033;-64
2023/06/05 08:27:35;;;;;;;3.00;1.98;;;;;;;;;;10384826;28;20037;-65
2023/06/05 08:32:36;;;;;;;2.88;1.70;;;;;;;;;;10371954;28;20057;-67
2023/06/05 08:37:37;;;;;;;5.35;2.22;;;;;;;;;;10371863;28;20501;-67
2023/06/05 08:42:38;;;;;;;7.57;2.45;;;;;;;;;;10369804;28;20048;-66
2023/06/05 08:47:40;;;;;;;4.53;1.90;;;;;;;;;;10371401;28;20045;-66
2023/06/05 08:52:43;;;;;;;7.20;2.22;;;;;;;;;;10387752;28;20393;-66
2023/06/05 08:57:44;;;;;;;3.05;1.90;;;;;;;;;;10393891;28;20018;-66
2023/06/05 09:02:47;;;;;;;5.50;1.80;;;;;;;;;;10385583;28;20021;-64
2023/06/05 09:07:50;;;;;;;4.38;2.10;;;;;;;;;;10394940;28;20060;-66
2023/06/05 09:12:59;;;;;;;4.88;2.13;;;;;;;;;;10379939;28;20065;-67
2023/06/05 09:18:02;;;;;;;4.00;2.13;;;;;;;;;;10370901;28;20044;-65
2023/06/05 09:23:20;;;;;;;3.67;1.98;;;;;;;;;;10370521;28;20087;-67
2023/06/05 09:28:20;;;;;;;2.00;1.80;;;;;;;;;;10382945;28;20034;-66
2023/06/05 09:33:23;;;;;;;6.40;2.20;;;;;;;;;;10370204;28;20479;-67
2023/06/05 09:38:27;;;;;;;3.38;1.92;;;;;;;;;;10369622;28;21017;-66
2023/06/05 09:43:27;;;;;;;7.78;2.58;;;;;;;;;;10370052;28;20033;-62
2023/06/05 09:48:28;;;;;;;2.92;1.83;;;;;;;;;;10382334;28;20034;-63
2023/06/05 09:53:29;;;;;;;3.17;1.50;;;;;;;;;;10372986;28;20371;-67
2023/06/05 09:58:29;;;;;;;4.28;1.85;;;;;;;;;;10377713;28;20433;-67
2023/06/05 10:03:31;;;;;;;3.00;1.58;;;;;;;;;;10380628;28;20123;-67
2023/06/05 10:08:32;;;;;;;5.72;1.83;;;;;;;;;;10389895;28;20021;-66
2023/06/05 10:13:35;;;;;;;6.25;1.90;;;;;;;;;;10372324;28;20021;-62
2023/06/05 10:18:38;;;;;;;4.57;1.83;;;;;;;;;;10367474;28;20113;-66
2023/06/05 10:23:39;;;;;;;3.35;2.05;;;;;;;;;;10367470;28;20101;-66
2023/06/05 10:29:18;;;;;;;2.55;1.80;;;;;;;;;;10394305;28;20026;-54
2023/06/05 10:34:47;;;;;;;3.20;1.80;;;;;;;;;;10367304;28;20087;-52
2023/06/05 10:39:50;;;;;;;5.32;1.90;;;;;;;;;;10379742;28;20038;-63
2023/06/05 10:44:53;;;;;;;5.63;1.83;;;;;;;;;;10378968;28;20519;-66
2023/06/05 10:50:19;;;;;;;3.10;1.75;;;;;;;;;;10368020;28;20098;-60
2023/06/05 10:55:22;;;;;;;4.90;2.00;;;;;;;;;;10408756;28;20037;-65
2023/06/05 11:00:23;;;;;;;2.72;1.75;;;;;;;;;;10387663;28;20599;-66
2023/06/05 11:05:24;;;;;;;3.88;1.60;;;;;;;;;;10399915;28;20197;-67
2023/06/05 11:10:25;;;;;;;3.05;1.67;;;;;;;;;;10386636;28;20474;-66
2023/06/05 11:15:28;;;;;;;1.90;1.50;;;;;;;;;;10376400;28;20030;-66
2023/06/05 11:20:29;;;;;;;2.05;1.42;;;;;;;;;;10386856;28;20398;-67
2023/06/05 11:25:32;;;;;;;3.13;1.88;;;;;;;;;;10386554;28;20034;-62
2023/06/05 11:30:44;;;;;;;5.72;1.92;;;;;;;;;;10386546;28;20176;-67
2023/06/05 11:35:48;;;;;;;2.30;1.67;;;;;;;;;;10373256;28;20140;-67
2023/06/05 11:40:48;;;;;;;2.53;1.70;;;;;;;;;;10407635;28;20041;-66
2023/06/05 11:45:55;;;;;;;2.47;1.75;;;;;;;;;;10390394;28;20059;-65
2023/06/05 11:51:02;;;;;;;1.67;1.58;;;;;;;;;;10377698;28;20473;-56
2023/06/05 11:56:15;;;;;;;2.30;1.77;;;;;;;;;;10390217;28;20026;-60
2023/06/05 12:01:21;;;;;;;2.20;1.70;;;;;;;;;;10377822;28;20021;-66
2023/06/05 12:06:22;;;;;;;2.38;1.60;;;;;;;;;;10391862;28;20029;-62
2023/06/05 12:11:26;;;;;;;1.75;1.60;;;;;;;;;;10371482;28;20504;-62
2023/06/05 12:16:40;;;;;;;3.42;1.75;;;;;;;;;;10385153;28;20466;-66
2023/06/05 12:21:41;;;;;;;2.92;1.73;;;;;;;;;;10389542;28;20021;-66
2023/06/05 12:27:00;;;;;;;1.67;1.35;;;;;;;;;;10378793;28;20030;-63
2023/06/05 12:32:03;;;;;;;1.50;1.40;;;;;;;;;;10377681;28;20034;-62
2023/06/05 12:37:05;;;;;;;1.60;1.38;;;;;;;;;;10402769;28;20208;-61
2023/06/05 12:42:06;;;;;;;1.80;1.70;;;;;;;;;;10370898;28;20409;-65
2023/06/05 12:47:07;;;;;;;2.72;1.67;;;;;;;;;;10371380;28;20096;-66
2023/06/05 12:52:11;;;;;;;2.00;1.50;;;;;;;;;;10375326;28;20037;-62
2023/06/05 12:57:11;;;;;;;2.05;1.63;;;;;;;;;;10383987;28;20036;-59
2023/06/05 13:02:12;;;;;;;1.88;1.60;;;;;;;;;;10383426;28;20034;-64
2023/06/05 13:07:13;;;;;;;1.88;1.30;;;;;;;;;;10383445;28;20061;-66
2023/06/05 13:12:14;;;;;;;2.13;1.30;;;;;;;;;;10394819;28;20088;-63
2023/06/05 13:17:14;;;;;;;1.52;1.42;;;;;;;;;;10380713;28;20327;-56
2023/06/05 13:22:15;;;;;;;1.70;1.50;;;;;;;;;;10385104;28;20034;-55
2023/06/05 13:27:16;;;;;;;2.05;1.48;;;;;;;;;;10392356;28;20466;-66
2023/06/05 13:32:17;;;;;;;1.50;1.40;;;;;;;;;;10394092;28;20488;-63
2023/06/05 13:37:17;;;;;;;1.70;1.60;;;;;;;;;;10405847;28;20026;-63
2023/06/05 13:42:18;;;;;;;1.48;1.38;;;;;;;;;;10387331;28;20054;-64
2023/06/05 13:47:20;;;;;;;2.67;1.55;;;;;;;;;;10369812;28;20572;-66
2023/06/05 13:52:21;;;;;;;1.35;1.25;;;;;;;;;;10383000;28;20041;-60
2023/06/05 13:57:22;;;;;;;1.58;1.48;;;;;;;;;;10394913;28;20025;-65
2023/06/05 14:02:22;;;;;;;4.40;1.38;;;;;;;;;;10369533;28;20026;-66
2023/06/05 14:07:23;;;;;;;1.52;1.42;;;;;;;;;;10381813;28;20489;-54
2023/06/05 14:12:23;;;;;;;1.42;1.33;;;;;;;;;;10368858;28;20478;-63
2023/06/05 14:17:24;;;;;;;2.63;1.48;;;;;;;;;;10381592;28;20492;-56
2023/06/05 14:22:25;;;;;;;2.70;1.40;;;;;;;;;;10369636;28;20422;-62
2023/06/05 14:27:25;;;;;;;2.92;1.42;;;;;;;;;;10389576;28;20042;-62
2023/06/05 14:32:26;;;;;;;1.75;1.63;;;;;;;;;;10376225;28;20430;-66
2023/06/05 14:37:26;;;;;;;1.55;1.30;;;;;;;;;;10393601;28;20389;-60
2023/06/05 14:42:27;;;;;;;1.92;1.35;;;;;;;;;;10411181;28;20516;-66
2023/06/05 14:47:28;;;;;;;1.65;1.10;;;;;;;;;;10395971;28;20481;-64
2023/06/05 14:52:28;;;;;;;1.15;1.15;;;;;;;;;;10387775;28;20029;-66
2023/06/05 14:57:29;;;;;;;3.00;1.30;;;;;;;;;;10389297;28;20184;-60
2023/06/05 15:02:30;;;;;;;1.30;1.20;;;;;;;;;;10384994;28;20091;-62
2023/06/05 15:07:41;;;;;;;1.40;1.30;;;;;;;;;;10397781;28;20037;-64
2023/06/05 15:12:41;;;;;;;2.10;1.50;;;;;;;;;;10398039;28;20040;-66
2023/06/05 15:17:42;;;;;;;1.40;1.25;;;;;;;;;;10391659;28;20029;-65
2023/06/05 15:22:43;;;;;;;1.40;1.27;;;;;;;;;;10374584;28;20026;-66
2023/06/05 15:27:43;;;;;;;1.60;1.23;;;;;;;;;;10399386;28;20029;-66
2023/06/05 15:32:45;;;;;;;1.92;1.55;;;;;;;;;;10387197;28;20033;-64
2023/06/05 15:37:45;;;;;;;1.40;1.30;;;;;;;;;;10385237;28;20113;-66
2023/06/05 15:43:03;;;;;;;1.38;1.27;;;;;;;;;;10375557;28;20042;-62
2023/06/05 15:48:04;;;;;;;1.35;1.25;;;;;;;;;;10373692;28;20385;-53
2023/06/05 15:53:06;;;;;;;2.35;1.40;;;;;;;;;;10386550;28;20046;-55
2023/06/05 15:58:12;;;;;;;2.13;1.10;;;;;;;;;;10407196;28;20029;-66
2023/06/05 16:03:13;;;;;;;1.30;1.20;;;;;;;;;;10389689;28;20030;-66
2023/06/05 16:08:14;;;;;;;2.90;1.42;;;;;;;;;;10385128;28;20041;-66
2023/06/05 16:13:16;;;;;;;2.20;1.40;;;;;;;;;;10379216;28;20096;-66
2023/06/05 16:18:16;;;;;;;1.40;1.20;;;;;;;;;;10397334;28;20373;-65
2023/06/05 16:23:17;;;;;;;1.42;1.30;;;;;;;;;;10401418;28;20044;-66
2023/06/05 16:28:18;;;;;;;1.50;1.40;;;;;;;;;;10395656;28;20030;-66
2023/06/05 16:33:18;;;;;;;1.40;1.30;;;;;;;;;;10378757;28;20114;-52
2023/06/05 16:38:19;;;;;;;1.30;1.20;;;;;;;;;;10398207;28;20934;-65
2023/06/05 16:43:20;;;;;;;1.60;1.17;;;;;;;;;;10380015;28;20045;-67
2023/06/05 16:48:21;;;;;;;6.13;1.40;;;;;;;;;;10407032;28;20087;-64
2023/06/05 16:53:22;;;;;;;4.85;1.40;;;;;;;;;;10407733;28;20029;-65
2023/06/05 16:58:23;;;;;;;3.17;1.50;;;;;;;;;;10406786;28;20500;-65
2023/06/05 17:03:24;;;;;;;3.80;1.70;;;;;;;;;;10395344;28;20370;-66
2023/06/05 17:08:25;;;;;;;1.55;1.40;;;;;;;;;;10391678;28;20021;-65
2023/06/05 17:13:26;;;;;;;1.50;1.40;;;;;;;;;;10407607;28;20069;-66
2023/06/05 17:18:27;;;;;;;1.73;1.58;;;;;;;;;;10405742;28;20123;-63
2023/06/05 17:23:28;;;;;;;10.02;1.85;;;;;;;;;;10402160;28;20546;-66
2023/06/05 17:28:29;;;;;;;1.65;1.42;;;;;;;;;;10378177;28;20112;-66
2023/06/05 17:33:32;;;;;;;4.30;1.40;;;;;;;;;;10383651;28;20043;-64
2023/06/05 17:38:32;;;;;;;3.55;1.90;;;;;;;;;;10405977;28;20738;-64
2023/06/05 17:43:33;;;;;;;1.63;1.40;;;;;;;;;;10405904;28;20119;-64
2023/06/05 17:48:34;;;;;;;2.50;1.40;;;;;;;;;;10401401;28;20025;-64
2023/06/05 17:53:35;;;;;;;3.78;1.90;;;;;;;;;;10401719;28;20061;-61
2023/06/05 17:58:38;;;;;;;2.75;1.65;;;;;;;;;;10399965;28;20348;-68
2023/06/05 18:03:39;;;;;;;2.33;1.77;;;;;;;;;;10400781;28;20080;-64
2023/06/05 18:08:40;;;;;;;3.22;1.88;;;;;;;;;;10405282;28;20485;-67
2023/06/05 18:13:42;;;;;;;6.38;2.25;;;;;;;;;;10406879;28;20043;-65
2023/06/05 18:18:43;;;;;;;2.40;1.73;;;;;;;;;;10400322;28;20040;-61
2023/06/05 18:23:44;;;;;;;2.03;1.70;;;;;;;;;;10398143;28;20033;-63
2023/06/05 18:28:47;;;;;;;2.05;1.85;;;;;;;;;;10387152;28;20034;-59
2023/06/05 18:33:50;;;;;;;2.20;1.60;;;;;;;;;;10408846;28;20044;-63
2023/06/05 18:38:51;;;;;;;1.80;1.70;;;;;;;;;;10398921;28;20053;-66
2023/06/05 18:43:51;;;;;;;7.30;1.83;;;;;;;;;;10398889;28;20029;-67
2023/06/05 18:48:52;;;;;;;6.80;1.80;;;;;;;;;;10403151;28;20089;-67
2023/06/05 18:53:52;;;;;;;5.13;2.20;;;;;;;;;;10392193;28;20034;-66
2023/06/05 18:58:53;;;;;;;4.65;1.90;;;;;;;;;;10406478;28;20063;-65
2023/06/05 19:03:54;;;;;;;5.65;1.77;;;;;;;;;;10408159;28;20034;-67
2023/06/05 19:08:55;;;;;;;3.47;1.52;;;;;;;;;;10414259;28;20033;-67
2023/06/05 19:13:55;;;;;;;3.67;1.77;;;;;;;;;;10405460;28;20061;-66
2023/06/05 19:18:57;;;;;;;2.20;1.58;;;;;;;;;;10409272;28;20466;-63
2023/06/05 19:23:57;;;;;;;3.65;1.65;;;;;;;;;;10405005;28;20030;-65
2023/06/05 19:28:58;;;;;;;3.25;1.20;;;;;;;;;;10409752;28;20029;-66
2023/06/05 19:33:59;;;;;;;1.92;1.33;;;;;;;;;;10410967;28;20087;-66
2023/06/05 19:38:59;;;;;;;1.38;1.27;;;;;;;;;;10411123;28;20436;-67
2023/06/05 19:44:00;;;;;;;1.27;0.90;;;;;;;;;;10410987;28;20026;-65
2023/06/05 19:49:00;;;;;;;4.57;1.15;;;;;;;;;;10404522;28;20022;-66
2023/06/05 19:54:01;;;;;;;4.90;1.30;;;;;;;;;;10407898;28;20428;-65
2023/06/05 19:59:02;;;;;;;9.52;1.40;;;;;;;;;;10408399;28;20484;-65
2023/06/05 20:04:03;;;;;;;14.40;2.33;;;;;;;;;;10408834;28;20026;-67
2023/06/05 20:09:03;;;;;;;19.00;3.15;;;;;;;;;;10420382;28;20083;-64
2023/06/05 20:14:04;;;;;;;19.08;4.03;;;;;;;;;;10413967;28;20370;-65
2023/06/05 20:19:05;;;;;;;15.25;3.05;;;;;;;;;;10407170;28;20042;-65
2023/06/05 20:24:07;;;;;;;26.90;4.00;;;;;;;;;;10384741;28;20516;-65
2023/06/05 20:29:13;;;;;;;21.45;3.08;;;;;;;;;;10406671;28;20045;-65
2023/06/05 20:34:15;;;;;;;21.63;3.60;;;;;;;;;;10408298;28;20037;-63
2023/06/05 20:39:16;;;;;;;15.40;2.88;;;;;;;;;;10410555;28;20121;-63
2023/06/05 20:44:20;;;;;;;12.32;2.78;;;;;;;;;;10412730;28;20025;-63
2023/06/05 20:49:22;;;;;;;13.35;3.05;;;;;;;;;;10406204;28;20032;-64
2023/06/05 20:54:23;;;;;;;8.68;2.33;;;;;;;;;;10400525;28;20390;-63
2023/06/05 20:59:24;;;;;;;11.50;2.60;;;;;;;;;;10392106;28;20163;-64
2023/06/05 21:04:24;;;;;;;9.73;1.88;;;;;;;;;;10397822;28;20024;-63
2023/06/05 21:09:25;;;;;;;7.43;2.20;;;;;;;;;;10401882;28;20354;-65
2023/06/05 21:14:26;;;;;;;14.05;2.05;;;;;;;;;;10402562;28;20540;-64
2023/06/05 21:19:27;;;;;;;3.65;2.08;;;;;;;;;;10400262;28;20033;-65
2023/06/05 21:24:27;;;;;;;11.75;2.30;;;;;;;;;;10394447;28;20041;-64
2023/06/05 21:29:29;;;;;;;7.00;1.77;;;;;;;;;;10380091;28;20033;-64
2023/06/05 21:34:30;;;;;;;6.40;1.75;;;;;;;;;;10383257;28;20033;-61
2023/06/05 21:39:30;;;;;;;5.97;1.70;;;;;;;;;;10398973;28;20069;-60
2023/06/05 21:44:31;;;;;;;4.85;1.60;;;;;;;;;;10372445;28;20029;-60
2023/06/05 21:49:31;;;;;;;4.53;1.50;;;;;;;;;;10371292;28;20026;-61
2023/06/05 21:54:34;;;;;;;3.60;1.67;;;;;;;;;;10388963;28;20550;-61
2023/06/05 21:59:34;;;;;;;6.75;1.50;;;;;;;;;;10393439;28;20453;-61
2023/06/05 22:04:37;;;;;;;5.10;1.48;;;;;;;;;;10386614;28;20041;-60
2023/06/05 22:09:38;;;;;;;5.45;1.70;;;;;;;;;;10378574;28;20445;-62
2023/06/05 22:14:43;;;;;;;4.60;1.70;;;;;;;;;;10378297;28;20032;-62
2023/06/05 22:19:44;;;;;;;4.90;1.50;;;;;;;;;;10390625;28;20026;-62
2023/06/05 22:24:45;;;;;;;7.20;1.90;;;;;;;;;;10380771;28;20037;-61
2023/06/05 22:29:46;;;;;;;3.17;1.30;;;;;;;;;;10369402;28;20021;-61
2023/06/05 22:34:49;;;;;;;2.47;1.40;;;;;;;;;;10380188;28;20038;-61
2023/06/05 22:39:53;;;;;;;9.02;1.40;;;;;;;;;;10378812;28;20061;-59
2023/06/05 22:44:53;;;;;;;2.13;1.33;;;;;;;;;;10383094;28;20069;-60
2023/06/05 22:49:54;;;;;;;1.27;1.08;;;;;;;;;;10397431;28;20493;-61
2023/06/05 22:54:55;;;;;;;5.55;1.38;;;;;;;;;;10405785;28;20036;-63
2023/06/05 22:59:57;;;;;;;5.30;1.35;;;;;;;;;;10380604;28;20508;-63
2023/06/05 23:04:59;;;;;;;2.13;1.45;;;;;;;;;;10395446;28;20033;-64
2023/06/05 23:09:59;;;;;;;4.75;1.63;;;;;;;;;;10394236;28;20059;-65
2023/06/05 23:15:00;;;;;;;2.63;1.58;;;;;;;;;;10388337;28;20034;-64
2023/06/05 23:20:01;;;;;;;2.55;1.40;;;;;;;;;;10376087;28;20030;-65
2023/06/05 23:25:04;;;;;;;1.88;1.17;;;;;;;;;;10403502;28;20049;-65
2023/06/05 23:30:05;;;;;;;1.20;1.10;;;;;;;;;;10399025;28;20025;-64
2023/06/05 23:35:06;;;;;;;2.17;1.55;;;;;;;;;;10391552;28;20358;-65
2023/06/05 23:40:08;;;;;;;4.43;1.90;;;;;;;;;;10400535;28;20150;-64
2023/06/05 23:45:09;;;;;;;3.38;1.60;;;;;;;;;;10396189;28;20136;-64
2023/06/05 23:50:11;;;;;;;2.65;1.63;;;;;;;;;;10375683;28;20171;-63
2023/06/05 23:55:12;;;;;;;2.35;1.38;;;;;;;;;;10399442;28;20053;-63
